Time;durP1;ratioP1;P1;durP2;ratioP2;P2;SDS_P1;SDS_P2;PMS_P1;PMS_P2;Temp;Humidity;BMP_temperature;BMP_pressure;BME280_temperature;BME280_humidity;BME280_pressure;Samples;Min_cycle;Max_cycle;Signal;HPM_P1;HPM_P2
2021/06/06 00:01:07;;;;;;;;;;;19.80;71.10;;;;;;5053094;28;19970;-70
2021/06/06 00:03:35;;;;;;;;;;;19.80;71.00;;;;;;5054448;28;19939;-70
2021/06/06 00:06:02;;;;;;;;;;;19.80;71.10;;;;;;5054101;28;19917;-70
2021/06/06 00:08:29;;;;;;;;;;;19.80;71.20;;;;;;5054540;28;19948;-70
2021/06/06 00:10:57;;;;;;;;;;;19.80;71.20;;;;;;5054611;28;19917;-70
2021/06/06 00:13:23;;;;;;;;;;;19.80;71.30;;;;;;5052478;28;19921;-69
2021/06/06 00:15:48;;;;;;;;;;;19.80;71.20;;;;;;5053066;28;19927;-70
2021/06/06 00:18:14;;;;;;;;;;;19.80;71.20;;;;;;5053831;28;19943;-69
2021/06/06 00:20:40;;;;;;;;;;;19.80;71.20;;;;;;5054233;28;19971;-70
2021/06/06 00:23:06;;;;;;;;;;;19.80;71.30;;;;;;5053948;28;20314;-70
2021/06/06 00:25:32;;;;;;;;;;;19.90;71.30;;;;;;5052565;28;19917;-69
2021/06/06 00:27:57;;;;;;;;;;;19.80;71.40;;;;;;5053012;28;19923;-70
2021/06/06 00:30:23;;;;;;;;;;;19.90;71.50;;;;;;5054147;28;20139;-70
2021/06/06 00:32:49;;;;;;;;;;;19.80;71.50;;;;;;5053532;28;19952;-70
2021/06/06 00:35:15;;;;;;;;;;;19.80;71.50;;;;;;5053957;28;20347;-70
2021/06/06 00:37:41;;;;;;;;;;;19.80;71.50;;;;;;5035718;28;19917;-70
2021/06/06 00:40:08;;;;;;;;;;;19.70;71.50;;;;;;5035255;28;20011;-70
2021/06/06 00:42:36;;;;;;;;;;;19.70;71.60;;;;;;5052761;28;19923;-70
2021/06/06 00:45:04;;;;;;;;;;;19.70;71.70;;;;;;5052998;28;20444;-69
2021/06/06 00:47:30;;;;;;;;;;;19.70;71.80;;;;;;5052663;28;19925;-70
2021/06/06 00:49:56;;;;;;;;;;;19.70;71.90;;;;;;5053430;28;20414;-70
2021/06/06 00:52:23;;;;;;;;;;;19.70;72.00;;;;;;5052475;28;20265;-70
2021/06/06 00:54:51;;;;;;;;;;;19.70;72.10;;;;;;5035317;28;20391;-70
2021/06/06 00:57:23;;;;;;;;;;;19.70;72.30;;;;;;5053111;28;20285;-70
2021/06/06 01:00:07;;;;;;;;;;;19.70;72.50;;;;;;5035660;28;19926;-70
2021/06/06 01:02:38;;;;;;;;;;;19.70;72.70;;;;;;5035199;28;20008;-70
2021/06/06 01:05:22;;;;;;;;;;;19.80;72.90;;;;;;5035341;28;19917;-70
2021/06/06 01:07:49;;;;;;;;;;;19.80;72.70;;;;;;5068593;28;19921;-70
2021/06/06 01:10:15;;;;;;;;;;;19.80;72.70;;;;;;5040470;28;19913;-70
2021/06/06 01:12:44;;;;;;;;;;;19.80;72.80;;;;;;5045535;28;19917;-70
2021/06/06 01:15:18;;;;;;;;;;;19.80;73.10;;;;;;5042406;28;19928;-70
2021/06/06 01:18:01;;;;;;;;;;;19.80;73.60;;;;;;5057691;28;19916;-70
2021/06/06 01:20:44;;;;;;;;;;;19.80;74.00;;;;;;5039706;28;20416;-70
2021/06/06 01:23:23;;;;;;;;;;;19.90;74.40;;;;;;5052744;28;20251;-69
2021/06/06 01:25:50;;;;;;;;;;;19.90;74.70;;;;;;5035097;28;20003;-69
2021/06/06 01:28:27;;;;;;;;;;;19.90;75.00;;;;;;5034673;28;19917;-70
2021/06/06 01:30:56;;;;;;;;;;;19.90;75.40;;;;;;5053069;28;20412;-69
2021/06/06 01:33:27;;;;;;;;;;;20.00;75.80;;;;;;5034393;28;19932;-70
2021/06/06 01:35:59;;;;;;;;;;;20.00;76.00;;;;;;5051559;28;19920;-70
2021/06/06 01:38:26;;;;;;;;;;;20.00;76.20;;;;;;5034460;28;19917;-70
2021/06/06 01:40:58;;;;;;;;;;;20.00;76.40;;;;;;5035027;28;19913;-70
2021/06/06 01:43:28;;;;;;;;;;;20.00;76.70;;;;;;5034825;28;19917;-69
2021/06/06 01:45:58;;;;;;;;;;;20.00;77.00;;;;;;5042760;28;19928;-69
2021/06/06 01:48:25;;;;;;;;;;;20.00;77.20;;;;;;5034863;28;19916;-70
2021/06/06 01:51:01;;;;;;;;;;;20.00;77.40;;;;;;5034164;28;19924;-70
2021/06/06 01:53:27;;;;;;;;;;;20.00;77.60;;;;;;5051194;28;20391;-70
2021/06/06 01:55:56;;;;;;;;;;;19.90;77.90;;;;;;5051918;28;19993;-69
2021/06/06 01:58:22;;;;;;;;;;;20.00;78.70;;;;;;5034646;28;19917;-70
2021/06/06 02:00:55;;;;;;;;;;;20.00;78.40;;;;;;5050920;28;19913;-70
2021/06/06 02:03:30;;;;;;;;;;;20.00;78.40;;;;;;5050894;28;19917;-70
2021/06/06 02:05:59;;;;;;;;;;;19.90;78.60;;;;;;5034001;28;19924;-69
2021/06/06 02:08:31;;;;;;;;;;;19.90;78.90;;;;;;5034293;28;20396;-70
2021/06/06 02:11:01;;;;;;;;;;;19.90;79.10;;;;;;5034056;28;20297;-70
2021/06/06 02:13:35;;;;;;;;;;;19.90;79.40;;;;;;5050671;28;20003;-70
2021/06/06 02:16:02;;;;;;;;;;;19.80;79.50;;;;;;5051861;28;19927;-70
2021/06/06 02:18:33;;;;;;;;;;;19.80;79.70;;;;;;5033802;28;19956;-70
2021/06/06 02:21:04;;;;;;;;;;;19.70;80.10;;;;;;5034302;28;19917;-70
2021/06/06 02:23:32;;;;;;;;;;;19.70;80.40;;;;;;5033295;28;19917;-70
2021/06/06 02:26:14;;;;;;;;;;;19.70;80.50;;;;;;5034001;28;19917;-69
2021/06/06 02:28:57;;;;;;;;;;;19.70;80.60;;;;;;5034301;28;19925;-70
2021/06/06 02:31:26;;;;;;;;;;;19.70;80.70;;;;;;5050424;28;19981;-66
2021/06/06 02:33:54;;;;;;;;;;;19.60;80.60;;;;;;5033837;28;20442;-69
2021/06/06 02:36:29;;;;;;;;;;;19.60;80.70;;;;;;5050481;28;19921;-69
2021/06/06 02:39:13;;;;;;;;;;;19.60;80.90;;;;;;5033447;28;20332;-70
2021/06/06 02:41:50;;;;;;;;;;;19.50;80.90;;;;;;5033699;28;20374;-69
2021/06/06 02:44:21;;;;;;;;;;;19.50;81.70;;;;;;5039016;28;19920;-70
2021/06/06 02:46:55;;;;;;;;;;;19.40;81.20;;;;;;5060826;28;19920;-69
2021/06/06 02:49:28;;;;;;;;;;;19.40;81.40;;;;;;5033864;28;20018;-69
2021/06/06 02:51:58;;;;;;;;;;;19.40;81.60;;;;;;5033214;28;19924;-69
2021/06/06 02:54:35;;;;;;;;;;;19.30;81.50;;;;;;5033325;28;20327;-69
2021/06/06 02:57:10;;;;;;;;;;;19.30;81.70;;;;;;5033487;28;19956;-68
2021/06/06 02:59:36;;;;;;;;;;;19.30;82.00;;;;;;5051604;28;19923;-70
2021/06/06 03:02:06;;;;;;;;;;;19.30;82.00;;;;;;5032856;28;19913;-69
2021/06/06 03:04:34;;;;;;;;;;;19.20;82.10;;;;;;5033431;28;19917;-70
2021/06/06 03:07:08;;;;;;;;;;;19.20;82.20;;;;;;5033597;28;19917;-69
2021/06/06 03:09:36;;;;;;;;;;;19.10;82.30;;;;;;5041267;28;19925;-70
2021/06/06 03:12:06;;;;;;;;;;;19.10;82.50;;;;;;5049857;28;19962;-70
2021/06/06 03:14:38;;;;;;;;;;;19.10;82.60;;;;;;5033497;28;19929;-70
2021/06/06 03:17:11;;;;;;;;;;;19.00;82.60;;;;;;5051503;28;19916;-70
2021/06/06 03:19:40;;;;;;;;;;;19.00;82.80;;;;;;5033171;28;19921;-69
2021/06/06 03:22:09;;;;;;;;;;;19.00;83.00;;;;;;5033316;28;20377;-69
2021/06/06 03:24:46;;;;;;;;;;;19.00;83.20;;;;;;5032603;28;19924;-69
2021/06/06 03:27:13;;;;;;;;;;;19.00;83.40;;;;;;5049964;28;20070;-69
2021/06/06 03:29:57;;;;;;;;;;;18.90;83.30;;;;;;5033281;28;20002;-70
2021/06/06 03:32:26;;;;;;;;;;;18.90;83.50;;;;;;5041307;28;19916;-70
2021/06/06 03:34:52;;;;;;;;;;;18.90;83.80;;;;;;5017017;28;20312;-69
2021/06/06 03:37:19;;;;;;;;;;;18.90;83.90;;;;;;5032729;28;20308;-69
2021/06/06 03:39:55;;;;;;;;;;;18.90;84.00;;;;;;5051254;28;20373;-69
2021/06/06 03:42:25;;;;;;;;;;;18.90;84.10;;;;;;5032876;28;19923;-71
2021/06/06 03:44:54;;;;;;;;;;;18.90;84.20;;;;;;5032915;28;19916;-70
2021/06/06 03:47:23;;;;;;;;;;;18.90;84.60;;;;;;5036030;23;19933;-73
2021/06/06 03:49:50;;;;;;;;;;;18.80;84.40;;;;;;5001761;28;20380;-72
2021/06/06 03:52:16;;;;;;;;;;;18.80;84.40;;;;;;4995146;28;20310;-72
2021/06/06 03:54:42;;;;;;;;;;;18.80;84.50;;;;;;4973601;28;20024;-72
2021/06/06 03:57:09;;;;;;;;;;;18.80;84.50;;;;;;4983352;28;19914;-72
2021/06/06 03:59:37;;;;;;;;;;;18.80;84.60;;;;;;4974709;28;20371;-72
2021/06/06 04:02:03;;;;;;;;;;;18.80;84.70;;;;;;4991453;28;19969;-72
2021/06/06 04:04:34;;;;;;;;;;;18.80;84.80;;;;;;4991672;28;19918;-73
2021/06/06 04:07:01;;;;;;;;;;;18.80;84.80;;;;;;4989948;28;20012;-73
2021/06/06 04:09:27;;;;;;;;;;;18.70;84.90;;;;;;4990385;28;19968;-73
2021/06/06 04:11:53;;;;;;;;;;;18.70;85.10;;;;;;4989483;28;19922;-73
2021/06/06 04:14:19;;;;;;;;;;;18.70;85.20;;;;;;4991334;28;20004;-72
2021/06/06 04:16:53;;;;;;;;;;;18.70;85.10;;;;;;4993775;28;19924;-72
2021/06/06 04:19:19;;;;;;;;;;;18.70;85.10;;;;;;4993370;28;19918;-73
2021/06/06 04:21:46;;;;;;;;;;;18.70;85.20;;;;;;4993811;28;20021;-73
2021/06/06 04:24:13;;;;;;;;;;;18.70;85.20;;;;;;4994383;28;20016;-72
2021/06/06 04:26:41;;;;;;;;;;;18.60;85.10;;;;;;4993625;28;19929;-72
2021/06/06 04:29:08;;;;;;;;;;;18.60;85.10;;;;;;4993633;28;19918;-73
2021/06/06 04:31:34;;;;;;;;;;;18.60;85.40;;;;;;4994521;28;19922;-73
2021/06/06 04:34:08;;;;;;;;;;;18.60;85.30;;;;;;4978166;28;19918;-73
2021/06/06 04:36:34;;;;;;;;;;;18.60;85.40;;;;;;4993339;28;20361;-72
2021/06/06 04:39:02;;;;;;;;;;;18.60;85.20;;;;;;4993661;28;20353;-73
2021/06/06 04:41:34;;;;;;;;;;;18.60;85.30;;;;;;4994705;28;20420;-75
2021/06/06 04:44:01;;;;;;;;;;;18.60;85.30;;;;;;4994525;28;19925;-74
2021/06/06 04:46:27;;;;;;;;;;;18.60;85.50;;;;;;4995001;28;19922;-73
2021/06/06 04:48:54;;;;;;;;;;;18.60;85.50;;;;;;4995041;28;20290;-73
2021/06/06 04:51:24;;;;;;;;;;;18.70;85.10;;;;;;4993497;28;19918;-72
2021/06/06 04:54:15;;;;;;;;;;;18.60;85.30;;;;;;4991648;28;20289;-72
2021/06/06 04:56:43;;;;;;;;;;;18.60;84.90;;;;;;4992967;28;19933;-72
2021/06/06 04:59:12;;;;;;;;;;;18.60;85.20;;;;;;4994018;28;19918;-72
2021/06/06 05:01:40;;;;;;;;;;;18.60;85.10;;;;;;4994339;28;19929;-72
2021/06/06 05:04:08;;;;;;;;;;;18.60;85.30;;;;;;4992298;28;20370;-72
2021/06/06 05:06:35;;;;;;;;;;;18.60;85.20;;;;;;4976886;28;20013;-72
2021/06/06 05:09:06;;;;;;;;;;;18.60;85.10;;;;;;4992838;28;19950;-73
2021/06/06 05:11:34;;;;;;;;;;;18.60;85.20;;;;;;4992500;28;19984;-72
2021/06/06 05:14:00;;;;;;;;;;;18.60;85.10;;;;;;4993981;28;19918;-73
2021/06/06 05:16:27;;;;;;;;;;;18.60;84.70;;;;;;4992251;28;19922;-72
2021/06/06 05:18:55;;;;;;;;;;;18.60;84.80;;;;;;4992846;28;19936;-73
2021/06/06 05:21:22;;;;;;;;;;;18.60;84.80;;;;;;4992611;28;20000;-72
2021/06/06 05:23:49;;;;;;;;;;;18.50;85.00;;;;;;4975920;28;20303;-73
2021/06/06 05:26:16;;;;;;;;;;;18.40;85.10;;;;;;4993601;28;20449;-73
2021/06/06 05:28:44;;;;;;;;;;;18.50;85.20;;;;;;4992322;28;19914;-72
2021/06/06 05:31:10;;;;;;;;;;;18.50;84.90;;;;;;4993754;28;19926;-72
2021/06/06 05:33:36;;;;;;;;;;;18.50;85.00;;;;;;4993519;28;20338;-72
2021/06/06 05:36:01;;;;;;;;;;;18.50;85.10;;;;;;4993244;28;19922;-74
2021/06/06 05:38:28;;;;;;;;;;;18.60;85.10;;;;;;4993758;28;20433;-72
2021/06/06 05:40:54;;;;;;;;;;;18.60;85.20;;;;;;4993802;28;19917;-73
2021/06/06 05:43:20;;;;;;;;;;;18.60;85.00;;;;;;4992922;28;19920;-73
2021/06/06 05:45:47;;;;;;;;;;;18.60;84.40;;;;;;4993507;28;20423;-72
2021/06/06 05:48:13;;;;;;;;;;;18.50;84.70;;;;;;4993157;28;19922;-74
2021/06/06 05:50:40;;;;;;;;;;;18.50;85.00;;;;;;5008503;28;19918;-74
2021/06/06 05:53:21;;;;;;;;;;;18.50;85.10;;;;;;4991659;28;19921;-73
2021/06/06 05:55:48;;;;;;;;;;;18.60;85.10;;;;;;4975948;28;20289;-74
2021/06/06 05:58:14;;;;;;;;;;;18.60;85.10;;;;;;4991649;28;19967;-73
2021/06/06 06:00:41;;;;;;;;;;;18.60;85.00;;;;;;4993257;28;19925;-73
2021/06/06 06:03:07;;;;;;;;;;;18.60;84.40;;;;;;4992903;28;20004;-73
2021/06/06 06:05:34;;;;;;;;;;;18.60;84.10;;;;;;5007914;28;19961;-73
2021/06/06 06:08:15;;;;;;;;;;;18.50;84.30;;;;;;4993249;28;19984;-73
2021/06/06 06:10:41;;;;;;;;;;;18.50;84.60;;;;;;4992771;28;20398;-73
2021/06/06 06:13:06;;;;;;;;;;;18.40;84.90;;;;;;4992805;28;19914;-73
2021/06/06 06:15:32;;;;;;;;;;;18.40;85.10;;;;;;4992914;28;20009;-73
2021/06/06 06:17:57;;;;;;;;;;;18.40;85.20;;;;;;4992378;28;19922;-73
2021/06/06 06:20:23;;;;;;;;;;;18.60;85.40;;;;;;4993120;28;20009;-73
2021/06/06 06:22:49;;;;;;;;;;;18.60;85.20;;;;;;4992334;28;19968;-73
2021/06/06 06:25:15;;;;;;;;;;;18.60;85.00;;;;;;4992761;28;19918;-73
2021/06/06 06:27:41;;;;;;;;;;;18.70;84.80;;;;;;4992712;28;20390;-74
2021/06/06 06:30:22;;;;;;;;;;;18.80;84.80;;;;;;4994498;28;19952;-73
2021/06/06 06:32:48;;;;;;;;;;;18.80;84.70;;;;;;4978284;28;20399;-72
2021/06/06 06:35:13;;;;;;;;;;;18.80;84.40;;;;;;4993939;28;19922;-73
2021/06/06 06:37:39;;;;;;;;;;;18.80;84.40;;;;;;5011430;28;19921;-73
2021/06/06 06:40:09;;;;;;;;;;;18.90;84.40;;;;;;5012099;28;19996;-73
2021/06/06 06:42:34;;;;;;;;;;;18.90;84.30;;;;;;5011550;28;20393;-73
2021/06/06 06:45:00;;;;;;;;;;;18.90;84.00;;;;;;5011746;28;19920;-73
2021/06/06 06:47:30;;;;;;;;;;;18.80;84.10;;;;;;4993830;28;19921;-73
2021/06/06 06:49:55;;;;;;;;;;;18.80;84.00;;;;;;5011989;28;20000;-73
2021/06/06 06:52:21;;;;;;;;;;;18.80;84.20;;;;;;4980010;28;20012;-73
2021/06/06 06:54:47;;;;;;;;;;;18.80;84.30;;;;;;5009390;28;19921;-73
2021/06/06 06:57:13;;;;;;;;;;;18.80;84.10;;;;;;4980296;28;23417;-73
2021/06/06 06:59:39;;;;;;;;;;;18.80;83.80;;;;;;4991030;28;20009;-73
2021/06/06 07:02:04;;;;;;;;;;;18.70;84.00;;;;;;4994122;28;20397;-72
2021/06/06 07:04:31;;;;;;;;;;;18.70;83.70;;;;;;5011635;28;19921;-73
2021/06/06 07:06:56;;;;;;;;;;;18.70;83.80;;;;;;5011295;28;19941;-73
2021/06/06 07:09:23;;;;;;;;;;;18.70;83.90;;;;;;5011749;28;20409;-73
2021/06/06 07:11:49;;;;;;;;;;;18.60;83.60;;;;;;5011674;28;19917;-72
2021/06/06 07:14:14;;;;;;;;;;;18.60;84.10;;;;;;4993421;28;20333;-72
2021/06/06 07:16:40;;;;;;;;;;;18.70;84.10;;;;;;5011425;28;20153;-73
2021/06/06 07:19:06;;;;;;;;;;;18.70;84.40;;;;;;5011235;28;20382;-73
2021/06/06 07:21:32;;;;;;;;;;;18.80;84.10;;;;;;5011612;28;19917;-72
2021/06/06 07:23:58;;;;;;;;;;;18.80;84.10;;;;;;4993701;28;19972;-72
2021/06/06 07:26:27;;;;;;;;;;;18.90;84.10;;;;;;4993463;28;19917;-73
2021/06/06 07:28:54;;;;;;;;;;;18.90;83.80;;;;;;5011559;28;19921;-72
2021/06/06 07:31:20;;;;;;;;;;;18.90;83.70;;;;;;5011498;28;20293;-73
2021/06/06 07:33:46;;;;;;;;;;;19.00;83.70;;;;;;5010833;28;19918;-72
2021/06/06 07:36:14;;;;;;;;;;;19.00;84.20;;;;;;5011517;28;20403;-72
2021/06/06 07:38:40;;;;;;;;;;;19.00;83.70;;;;;;5011088;28;19924;-72
2021/06/06 07:41:06;;;;;;;;;;;19.00;83.30;;;;;;4997033;28;19914;-72
2021/06/06 07:43:33;;;;;;;;;;;19.00;83.30;;;;;;4990428;28;19918;-71
2021/06/06 07:45:59;;;;;;;;;;;19.00;83.40;;;;;;4992354;28;19922;-73
2021/06/06 07:48:24;;;;;;;;;;;19.10;83.50;;;;;;4997789;28;19929;-73
2021/06/06 07:50:51;;;;;;;;;;;19.10;83.50;;;;;;5012582;28;19921;-72
2021/06/06 07:53:18;;;;;;;;;;;19.10;83.50;;;;;;4997247;28;20381;-72
2021/06/06 07:55:43;;;;;;;;;;;19.10;83.30;;;;;;4997335;28;19929;-72
2021/06/06 07:58:09;;;;;;;;;;;19.20;83.20;;;;;;5014611;28;20298;-72
2021/06/06 08:00:39;;;;;;;;;;;19.20;83.10;;;;;;4997590;28;20401;-71
2021/06/06 08:03:05;;;;;;;;;;;19.10;83.60;;;;;;4997091;28;19921;-71
2021/06/06 08:05:32;;;;;;;;;;;19.20;83.10;;;;;;5014491;28;19941;-71
2021/06/06 08:07:57;;;;;;;;;;;19.10;82.90;;;;;;5014780;28;19913;-72
2021/06/06 08:10:24;;;;;;;;;;;19.20;83.10;;;;;;5014420;28;19917;-72
2021/06/06 08:12:50;;;;;;;;;;;19.20;83.30;;;;;;4997067;28;19925;-70
2021/06/06 08:15:15;;;;;;;;;;;19.30;83.50;;;;;;5014489;28;20329;-71
2021/06/06 08:17:41;;;;;;;;;;;19.40;83.40;;;;;;5014143;28;19934;-72
2021/06/06 08:20:08;;;;;;;;;;;19.50;83.50;;;;;;5014613;28;19968;-71
2021/06/06 08:22:34;;;;;;;;;;;19.60;83.20;;;;;;5014619;28;20004;-72
2021/06/06 08:25:00;;;;;;;;;;;19.70;83.00;;;;;;5013801;28;19921;-72
2021/06/06 08:27:26;;;;;;;;;;;19.70;82.70;;;;;;5014507;28;19965;-72
2021/06/06 08:29:52;;;;;;;;;;;19.80;82.60;;;;;;5014009;28;19921;-72
2021/06/06 08:32:18;;;;;;;;;;;19.90;82.50;;;;;;5014507;28;19918;-73
2021/06/06 08:34:43;;;;;;;;;;;20.00;82.60;;;;;;5014078;28;19928;-72
2021/06/06 08:37:09;;;;;;;;;;;20.10;82.40;;;;;;4996155;28;19925;-72
2021/06/06 08:39:35;;;;;;;;;;;20.30;82.00;;;;;;5014306;28;19924;-73
2021/06/06 08:42:08;;;;;;;;;;;20.30;81.40;;;;;;4996102;28;19917;-73
2021/06/06 08:44:47;;;;;;;;;;;20.40;81.60;;;;;;4996161;28;20004;-71
2021/06/06 08:47:14;;;;;;;;;;;20.50;81.40;;;;;;5013410;28;20012;-72
2021/06/06 08:49:44;;;;;;;;;;;20.60;81.40;;;;;;5014121;28;19917;-71
2021/06/06 08:52:27;;;;;;;;;;;20.80;81.40;;;;;;5013429;28;19917;-72
2021/06/06 08:54:59;;;;;;;;;;;20.90;80.20;;;;;;5012327;28;19959;-72
2021/06/06 08:57:29;;;;;;;;;;;21.00;79.50;;;;;;5013457;28;20031;-72
2021/06/06 08:59:55;;;;;;;;;;;21.00;79.60;;;;;;4995746;28;19921;-72
2021/06/06 09:02:21;;;;;;;;;;;21.00;80.00;;;;;;5013316;28;19921;-72
2021/06/06 09:04:47;;;;;;;;;;;21.10;79.80;;;;;;5013893;28;19967;-72
2021/06/06 09:07:17;;;;;;;;;;;21.20;79.00;;;;;;4998330;28;19917;-72
2021/06/06 09:09:44;;;;;;;;;;;21.20;78.50;;;;;;5011746;28;19918;-72
2021/06/06 09:12:17;;;;;;;;;;;21.10;77.80;;;;;;5013804;28;20052;-72
2021/06/06 09:14:43;;;;;;;;;;;21.00;77.70;;;;;;4993782;28;19922;-72
2021/06/06 09:17:13;;;;;;;;;;;21.00;78.30;;;;;;5013449;28;19971;-72
2021/06/06 09:19:41;;;;;;;;;;;21.10;78.50;;;;;;5013609;28;19918;-71
2021/06/06 09:22:06;;;;;;;;;;;21.10;78.10;;;;;;4979322;28;19957;-72
2021/06/06 09:24:35;;;;;;;;;;;21.10;78.00;;;;;;5013138;28;19918;-72
2021/06/06 09:27:10;;;;;;;;;;;21.10;77.60;;;;;;5012802;28;19925;-71
2021/06/06 09:29:36;;;;;;;;;;;21.20;77.80;;;;;;5013219;28;19917;-72
2021/06/06 09:32:05;;;;;;;;;;;21.20;77.50;;;;;;5013030;28;19924;-71
2021/06/06 09:34:31;;;;;;;;;;;21.40;77.80;;;;;;5012924;28;19924;-72
2021/06/06 09:37:06;;;;;;;;;;;21.50;77.70;;;;;;4997182;28;19917;-71
2021/06/06 09:39:38;;;;;;;;;;;21.60;76.90;;;;;;4995200;28;19921;-72
2021/06/06 09:42:16;;;;;;;;;;;21.50;76.10;;;;;;5013009;28;19917;-71
2021/06/06 09:44:41;;;;;;;;;;;21.40;75.90;;;;;;4995044;28;19945;-71
2021/06/06 09:47:07;;;;;;;;;;;21.30;76.10;;;;;;4998720;28;19953;-73
2021/06/06 09:49:32;;;;;;;;;;;21.20;75.80;;;;;;5009894;28;19917;-72
2021/06/06 09:52:18;;;;;;;;;;;21.00;76.30;;;;;;5012888;28;19979;-72
2021/06/06 09:54:46;;;;;;;;;;;21.00;76.50;;;;;;4994028;28;19922;-72
2021/06/06 09:57:20;;;;;;;;;;;21.10;76.20;;;;;;5012609;28;20324;-72
2021/06/06 09:59:46;;;;;;;;;;;21.00;76.60;;;;;;5012413;28;19918;-71
2021/06/06 10:02:12;;;;;;;;;;;21.20;76.80;;;;;;5012716;28;19917;-71
2021/06/06 10:04:39;;;;;;;;;;;21.20;76.30;;;;;;5012094;28;20285;-71
2021/06/06 10:07:23;;;;;;;;;;;21.30;75.80;;;;;;5012001;28;20274;-72
2021/06/06 10:09:52;;;;;;;;;;;21.30;76.20;;;;;;5012725;28;19921;-72
2021/06/06 10:12:32;;;;;;;;;;;21.40;75.80;;;;;;4993512;28;19921;-72
2021/06/06 10:15:03;;;;;;;;;;;21.40;75.30;;;;;;5011561;28;19961;-71
2021/06/06 10:17:40;;;;;;;;;;;21.20;75.30;;;;;;5011822;28;19925;-71
2021/06/06 10:20:06;;;;;;;;;;;21.10;75.60;;;;;;5012543;28;20344;-71
2021/06/06 10:22:35;;;;;;;;;;;21.20;76.20;;;;;;5011976;28;19932;-72
2021/06/06 10:25:08;;;;;;;;;;;21.30;76.20;;;;;;4994591;28;19925;-72
2021/06/06 10:27:37;;;;;;;;;;;21.30;75.30;;;;;;5011788;28;19917;-72
2021/06/06 10:30:06;;;;;;;;;;;21.30;75.20;;;;;;5012386;28;20008;-72
2021/06/06 10:32:33;;;;;;;;;;;21.40;75.70;;;;;;5011828;28;19922;-72
2021/06/06 10:35:09;;;;;;;;;;;21.40;75.20;;;;;;5012005;28;19978;-72
2021/06/06 10:37:35;;;;;;;;;;;21.40;75.80;;;;;;5012052;28;19925;-71
2021/06/06 10:40:03;;;;;;;;;;;21.40;75.60;;;;;;5011562;28;19917;-72
2021/06/06 10:42:32;;;;;;;;;;;21.50;75.60;;;;;;5012000;28;19960;-72
2021/06/06 10:45:01;;;;;;;;;;;21.70;75.70;;;;;;5011197;28;19996;-72
2021/06/06 10:47:36;;;;;;;;;;;21.80;75.10;;;;;;5011816;28;20374;-72
2021/06/06 10:50:12;;;;;;;;;;;21.90;74.90;;;;;;5011589;28;20382;-71
2021/06/06 10:52:38;;;;;;;;;;;22.00;74.80;;;;;;5011904;28;20374;-72
2021/06/06 10:55:13;;;;;;;;;;;22.10;74.40;;;;;;5010979;28;19944;-71
2021/06/06 10:57:39;;;;;;;;;;;22.10;74.20;;;;;;5011865;28;20382;-72
2021/06/06 11:00:17;;;;;;;;;;;22.10;73.90;;;;;;4977557;28;19920;-73
2021/06/06 11:02:49;;;;;;;;;;;22.10;73.30;;;;;;5011836;28;19922;-71
2021/06/06 11:05:24;;;;;;;;;;;22.00;73.20;;;;;;5011262;28;19918;-72
2021/06/06 11:07:50;;;;;;;;;;;21.90;73.30;;;;;;5011688;28;19917;-72
2021/06/06 11:10:15;;;;;;;;;;;21.90;73.50;;;;;;4994462;28;19925;-72
2021/06/06 11:12:41;;;;;;;;;;;21.90;72.90;;;;;;5011025;28;19925;-73
2021/06/06 11:15:16;;;;;;;;;;;21.90;73.50;;;;;;5010966;28;20591;-72
2021/06/06 11:17:42;;;;;;;;;;;21.90;73.70;;;;;;5011021;28;19961;-72
2021/06/06 11:20:10;;;;;;;;;;;21.90;73.90;;;;;;4997466;28;20016;-71
2021/06/06 11:22:37;;;;;;;;;;;22.00;73.90;;;;;;5008831;28;19925;-72
2021/06/06 11:25:04;;;;;;;;;;;22.10;73.50;;;;;;5001667;28;19914;-71
2021/06/06 11:27:34;;;;;;;;;;;22.10;73.40;;;;;;4994570;28;19968;-72
2021/06/06 11:30:08;;;;;;;;;;;22.10;73.20;;;;;;5012694;28;20000;-72
2021/06/06 11:32:36;;;;;;;;;;;22.00;72.90;;;;;;5015564;28;20262;-72
2021/06/06 11:35:05;;;;;;;;;;;22.00;72.90;;;;;;5014655;28;19926;-72
2021/06/06 11:37:32;;;;;;;;;;;21.90;72.70;;;;;;5015348;28;20381;-71
2021/06/06 11:39:59;;;;;;;;;;;21.80;72.90;;;;;;5014961;28;19961;-72
2021/06/06 11:42:30;;;;;;;;;;;21.70;72.80;;;;;;5015524;28;19918;-72
2021/06/06 11:44:55;;;;;;;;;;;21.60;72.60;;;;;;5015068;28;20374;-72
2021/06/06 11:47:21;;;;;;;;;;;21.40;72.70;;;;;;5014612;28;19931;-72
2021/06/06 11:49:52;;;;;;;;;;;21.30;73.00;;;;;;5015115;28;19924;-72
2021/06/06 11:52:24;;;;;;;;;;;21.20;73.50;;;;;;5014493;28;20063;-72
2021/06/06 11:54:52;;;;;;;;;;;21.10;73.50;;;;;;5014638;28;20321;-72
2021/06/06 11:57:28;;;;;;;;;;;21.10;73.70;;;;;;5014849;28;19913;-72
2021/06/06 12:00:06;;;;;;;;;;;21.00;74.20;;;;;;4995233;28;20008;-72
2021/06/06 12:02:38;;;;;;;;;;;21.10;74.50;;;;;;4995242;28;20001;-71
2021/06/06 12:05:16;;;;;;;;;;;21.20;74.70;;;;;;4994886;28;20006;-72
2021/06/06 12:07:44;;;;;;;;;;;21.30;74.70;;;;;;4993965;28;19945;-72
2021/06/06 12:10:41;;;;;;;;;;;21.30;74.60;;;;;;4994892;28;19921;-72
2021/06/06 12:13:07;;;;;;;;;;;21.30;74.40;;;;;;4960906;28;19953;-71
2021/06/06 12:15:37;;;;;;;;;;;21.30;73.90;;;;;;4994971;28;19964;-71
2021/06/06 12:18:12;;;;;;;;;;;21.20;74.10;;;;;;4994489;28;19922;-72
2021/06/06 12:20:48;;;;;;;;;;;21.10;74.60;;;;;;4995082;28;19980;-71
2021/06/06 12:23:13;;;;;;;;;;;21.10;74.90;;;;;;4994163;28;19925;-71
2021/06/06 12:25:39;;;;;;;;;;;21.10;75.00;;;;;;4994982;28;20009;-72
2021/06/06 12:28:18;;;;;;;;;;;21.10;75.10;;;;;;4995078;28;19922;-71
2021/06/06 12:30:46;;;;;;;;;;;21.10;74.90;;;;;;4994824;28;20278;-71
2021/06/06 12:33:12;;;;;;;;;;;21.00;75.20;;;;;;4994227;28;19940;-72
2021/06/06 12:35:43;;;;;;;;;;;21.00;75.30;;;;;;4993188;28;20371;-72
2021/06/06 12:38:10;;;;;;;;;;;21.10;75.40;;;;;;4994794;28;19917;-73
2021/06/06 12:40:37;;;;;;;;;;;21.00;75.40;;;;;;4993000;28;20002;-72
2021/06/06 12:43:04;;;;;;;;;;;21.00;75.20;;;;;;4993908;28;19925;-73
2021/06/06 12:45:31;;;;;;;;;;;21.00;75.50;;;;;;4994695;28;19917;-72
2021/06/06 12:48:25;;;;;;;;;;;20.90;75.80;;;;;;4992734;28;19922;-71
2021/06/06 12:50:52;;;;;;;;;;;21.00;76.10;;;;;;4981009;28;19922;-72
2021/06/06 12:53:29;;;;;;;;;;;21.10;76.20;;;;;;4992298;28;20318;-71
2021/06/06 12:56:05;;;;;;;;;;;21.10;76.00;;;;;;4993939;28;19928;-72
2021/06/06 12:58:32;;;;;;;;;;;21.20;75.90;;;;;;4993067;28;19933;-72
2021/06/06 13:00:57;;;;;;;;;;;21.20;76.10;;;;;;4993217;28;20413;-72
2021/06/06 13:03:26;;;;;;;;;;;21.20;75.80;;;;;;4993124;28;20004;-73
2021/06/06 13:05:53;;;;;;;;;;;21.30;76.10;;;;;;4992934;28;19952;-73
2021/06/06 13:08:37;;;;;;;;;;;21.30;76.20;;;;;;4993847;28;19918;-72
2021/06/06 13:11:04;;;;;;;;;;;21.40;76.30;;;;;;4994220;28;20315;-72
2021/06/06 13:13:38;;;;;;;;;;;21.50;76.30;;;;;;4992937;28;19917;-72
2021/06/06 13:16:14;;;;;;;;;;;21.70;75.90;;;;;;4993761;28;19921;-71
2021/06/06 13:18:39;;;;;;;;;;;21.80;75.70;;;;;;4992393;28;19926;-71
2021/06/06 13:21:12;;;;;;;;;;;21.90;75.50;;;;;;4994032;28;19921;-72
2021/06/06 13:23:39;;;;;;;;;;;22.00;75.20;;;;;;4991852;28;20342;-71
2021/06/06 13:26:06;;;;;;;;;;;22.10;74.90;;;;;;4993741;28;20386;-70
2021/06/06 13:28:33;;;;;;;;;;;22.10;74.00;;;;;;4993638;28;19976;-71
2021/06/06 13:31:17;;;;;;;;;;;22.00;73.60;;;;;;4993865;28;19925;-71
2021/06/06 13:33:43;;;;;;;;;;;21.80;74.00;;;;;;4992598;28;20286;-71
2021/06/06 13:36:09;;;;;;;;;;;21.70;73.70;;;;;;4993506;28;20001;-72
2021/06/06 13:38:35;;;;;;;;;;;21.50;73.90;;;;;;4993783;28;19918;-71
2021/06/06 13:41:01;;;;;;;;;;;21.50;74.40;;;;;;4993024;28;20009;-70
2021/06/06 13:43:27;;;;;;;;;;;21.50;74.60;;;;;;4993093;28;20386;-71
2021/06/06 13:45:53;;;;;;;;;;;21.50;74.40;;;;;;4993150;28;20299;-72
2021/06/06 13:48:20;;;;;;;;;;;21.40;74.50;;;;;;4993167;28;20271;-72
2021/06/06 13:50:46;;;;;;;;;;;21.40;74.40;;;;;;4993359;28;20362;-72
2021/06/06 13:53:18;;;;;;;;;;;21.40;74.70;;;;;;4992147;28;19957;-72
2021/06/06 13:55:43;;;;;;;;;;;21.50;74.90;;;;;;4993066;28;19984;-72
2021/06/06 13:58:09;;;;;;;;;;;21.40;74.50;;;;;;4993326;28;19918;-72
2021/06/06 14:00:37;;;;;;;;;;;21.40;74.60;;;;;;4991674;28;20346;-72
2021/06/06 14:03:05;;;;;;;;;;;21.40;74.30;;;;;;4994400;28;19925;-72
2021/06/06 14:05:31;;;;;;;;;;;21.20;74.20;;;;;;4993604;28;20408;-72
2021/06/06 14:07:57;;;;;;;;;;;21.10;74.80;;;;;;4993265;28;19918;-71
2021/06/06 14:10:26;;;;;;;;;;;20.90;74.70;;;;;;4993013;28;19922;-72
2021/06/06 14:12:51;;;;;;;;;;;20.80;75.30;;;;;;4990771;28;20279;-71
2021/06/06 14:15:19;;;;;;;;;;;20.70;75.40;;;;;;4991510;28;19922;-71
2021/06/06 14:17:44;;;;;;;;;;;20.70;75.90;;;;;;4992486;28;19924;-72
2021/06/06 14:20:11;;;;;;;;;;;20.70;75.80;;;;;;4991641;28;19996;-72
2021/06/06 14:22:37;;;;;;;;;;;20.60;75.80;;;;;;4992799;28;20013;-71
2021/06/06 14:25:04;;;;;;;;;;;20.60;76.20;;;;;;4990999;28;20347;-71
2021/06/06 14:27:29;;;;;;;;;;;20.50;76.10;;;;;;4992760;28;19922;-72